Aeroboteco Virtual Airlines! Uma nuvem a frente.



 INFORMAÇÕES METEOROLÓGICAS
METAR FOR LYBE
ADDS - METARS form results

(1605 UTC 21 March 2019)
Data provider http://aviationweather.gov/metar/data/
 
METAR text: LYBE 211600Z 34007KT CAVOK 14/M05 Q1032 NOSIG
Conditions at: LYBE (BELGRADE/SURCIN , CS) observed 1600 UTC 21 March 2019
Temperature: 14.0°C (57°F)
Dewpoint: -5.0°C (23°F) [RH = 26%]
Pressure (altimeter): 30.47 inches Hg (1032.0 mb)
Winds: from the NNW (340 degrees) at 8 MPH (7 knots; 3.6 m/s)
Visibility: 6 or more miles (10+ km)
Ceiling: ceiling and visibility are OK
Clouds: unknown
Weather: no significant weather observed at this time

METAR text: LYBE 211530Z 36008KT CAVOK 14/M05 Q1032 NOSIG
Conditions at: LYBE (BELGRADE/SURCIN , CS) observed 1530 UTC 21 March 2019
Temperature: 14.0°C (57°F)
Dewpoint: -5.0°C (23°F) [RH = 26%]
Pressure (altimeter): 30.47 inches Hg (1032.0 mb)
Winds: from the N (360 degrees) at 9 MPH (8 knots; 4.1 m/s)
Visibility: 6 or more miles (10+ km)
Ceiling: ceiling and visibility are OK
Clouds: unknown
Weather: no significant weather observed at this time

Forecast for: LYBE (BELGRADE/SURCIN , CS)
Text: TAF LYBE 211100Z 2112/2212 36006KT CAVOK TX14/2113Z TN01/2205Z
Forecast period: 1200 UTC 21 March 2019 to 1200 UTC 22 March 2019
Forecast type: FROM: standard forecast or significant change
Winds: from the N (360 degrees) at 7 MPH (6 knots; 3.1 m/s)
Visibility: 6 or more miles 10+ km)
Ceiling: unknown
Clouds: missing
Weather: no significant weather forecast for this period

 MAPA DO AEROPORTO

 INFORMAÇÕES DA PISTA
Pista 12 Tamanho da pista 11155 ft Largura da pista 148 ft
Elevação da pista 318 ft Ranhura da pista 0 ft Proa da pista 122
Pista 30 Tamanho da pista 11155 ft Largura da pista 148 ft
Elevação da pista 335 ft Ranhura da pista 1312 ft Proa da pista 302

 FREQUÊNCIAS DO AEROPORTO
Tipo APP Nome APP Frequência 119.1 MHZ
Tipo ATIS Nome INFO Frequência 122.925 MHZ
Tipo TWR Nome TWR Frequência 118.1 MHZ

 AUXÍLIOS DE NAVEGAÇÃO PRÓXIMOS AO AEROPORTO
Tipo VOR-DME Nome Beograd Frequência 112300 KHZ
Tipo NDB Nome Beograd Frequência 316 KHZ
Tipo NDB Nome Beograd Frequência 380 KHZ
Tipo NDB Nome Beograd Frequência 355 KHZ